Latest Weather Observations for Lake Grace

IDW60801

Issued at 11:33 pm WST Friday 3 July 2015 (issued every 30 minutes, with the page automatically refreshed every 10 minutes)

About weather observations | Map of weather stations | Latest weather observations for WA | Other Formats
Station Details ID: 010911 Name: LAKE GRACE Lat: -33.10 Lon: 118.46 Height: 286.0 m
Data from the previous 72 hours. | See also: Recent months at Lake Grace
Date/Time
WST
Temp
°C
App
Temp
°C
Dew
Point
Rel
Hum
%
Delta-T
°C
Wind Press
QNH
hPa
Press
MSL
hPa
Rain
since 9 am
mm
Dir
 
Spd
km/h
Gust
km/h
Spd
kts
Gust
kts
03/11:30pm 10.3 8.9 9.4 94 0.5 N 7 9 4 5 1022.6 1022.8 0.0
03/11:00pm 10.8 9.4 9.7 93 0.6 N 7 9 4 5 1022.8 1023.0 0.0
03/10:30pm 11.6 10.5 10.5 93 0.6 N 7 9 4 5 1022.8 1023.0 0.0
03/10:00pm 11.7 11.9 10.6 93 0.6 CALM 0 0 0 0 1022.9 1023.2 0.0
03/09:30pm 11.2 10.1 9.9 92 0.7 NNW 6 6 3 3 1023.1 1023.4 0.0
03/09:00pm 11.5 10.4 10.1 91 0.7 NNW 6 7 3 4 1023.0 1023.3 0.0
03/08:30pm 12.5 11.7 10.9 90 0.8 N 6 7 3 4 1023.1 1023.4 0.0
03/08:00pm 12.6 12.1 10.7 88 1.0 N 4 7 2 4 1023.1 1023.4 0.0
03/07:30pm 14.2 13.9 11.4 83 1.5 W 4 6 2 3 1023.0 1023.3 0.0
03/07:00pm 15.1 14.5 11.7 80 1.9 W 6 9 3 5 1023.0 1023.3 0.0
03/06:30pm 15.7 15.1 11.7 77 2.2 WNW 6 7 3 4 1022.9 1023.2 0.0
03/06:00pm 16.5 15.4 11.9 74 2.5 WNW 9 13 5 7 1022.7 1022.9 0.0
03/05:30pm 16.9 15.4 11.8 72 2.8 W 11 13 6 7 1022.5 1022.7 0.0
03/05:00pm 17.0 15.4 11.7 71 2.9 WNW 11 15 6 8 1022.2 1022.4 0.0
03/04:30pm 17.2 16.1 11.9 71 2.9 WNW 9 15 5 8 1021.9 1022.1 0.0
03/04:00pm 17.3 15.4 11.8 70 3.0 WNW 13 20 7 11 1021.8 1022.0 0.0
03/03:30pm 18.1 15.2 12.3 69 3.3 WNW 19 26 10 14 1021.7 1021.9 0.0
03/03:00pm 18.4 15.9 12.4 68 3.4 W 17 22 9 12 1021.5 1021.7 0.0
03/02:30pm 19.2 17.5 12.5 65 3.8 WNW 13 20 7 11 1021.3 1021.5 0.0
03/02:00pm 19.3 18.1 12.8 66 3.7 NW 11 17 6 9 1021.3 1021.5 0.0
03/01:30pm 18.2 16.7 12.0 67 3.5 NW 11 15 6 8 1021.3 1021.5 0.0
03/01:00pm 19.3 18.5 12.8 66 3.7 NW 9 17 5 9 1021.3 1021.5 0.0
03/12:30pm 17.7 15.9 12.2 70 3.1 NW 13 15 7 8 1021.8 1022.0 0.0
03/12:00pm 18.1 16.8 12.5 70 3.1 WNW 11 17 6 9 1022.1 1022.3 0.0
03/11:30am 17.5 16.2 12.6 73 2.8 WNW 11 15 6 8 1022.4 1022.6 0.0
03/11:00am 16.4 14.9 12.0 75 2.4 NNW 11 17 6 9 1022.9 1023.2 0.0
03/10:30am 15.5 13.9 11.7 78 2.1 NNW 11 15 6 8 1023.1 1023.4 0.0
03/10:00am 14.2 12.0 10.8 80 1.8 NNW 13 17 7 9 1023.3 1023.6 0.0
03/09:30am 13.9 11.4 11.1 83 1.5 N 15 17 8 9 1023.1 1023.4 0.0
03/09:00am 12.9 11.5 10.8 87 1.1 N 9 13 5 7 1023.0 1023.3 0.8
03/08:30am 12.3 10.9 11.0 92 0.7 N 9 11 5 6 1023.2 1023.5 0.8
03/08:00am 10.4 10.3 9.5 94 0.5 CALM 0 0 0 0 1023.1 1023.4 0.8
03/07:30am 9.4 7.9 8.5 94 0.4 NNE 6 9 3 5 1022.7 1022.9 0.8
03/07:00am 9.9 8.4 9.0 94 0.4 N 7 11 4 6 1022.5 1022.7 0.8
03/06:30am 10.1 8.2 9.0 93 0.6 N 9 11 5 6 1022.4 1022.6 0.8
03/06:00am 10.4 8.9 9.3 93 0.6 NNE 7 9 4 5 1022.2 1022.4 0.8
03/05:30am 10.4 8.2 9.3 93 0.6 N 11 13 6 7 1022.0 1022.2 0.8
03/05:00am 10.4 8.2 9.2 92 0.6 N 11 13 6 7 1022.0 1022.2 0.8
03/04:30am 10.7 8.5 9.5 92 0.6 N 11 13 6 7 1021.9 1022.1 0.8
03/04:00am 10.8 9.0 9.6 92 0.6 N 9 13 5 7 1022.2 1022.4 0.8
03/03:30am 11.1 9.4 9.7 91 0.7 N 9 11 5 6 1022.4 1022.6 0.8
03/03:00am 11.4 9.3 9.8 90 0.8 N 11 13 6 7 1022.5 1022.7 0.8
03/02:30am 11.8 9.8 10.0 89 0.9 N 11 15 6 8 1022.6 1022.8 0.8
03/02:00am 11.8 10.1 10.0 89 0.9 N 9 9 5 5 1022.7 1022.9 0.8
03/01:30am 12.0 10.0 10.2 89 0.9 N 11 15 6 8 1022.7 1022.9 0.8
03/01:00am 11.8 9.4 10.2 90 0.8 N 13 17 7 9 1022.7 1022.9 0.8
03/12:30am 11.3 10.0 9.9 91 0.7 N 7 11 4 6 1022.7 1022.9 0.8
03/12:00am 11.3 8.5 9.9 91 0.7 N 15 17 8 9 1022.7 1022.9 0.8
 
Date/Time
WST
Temp
°C
App
Temp
°C
Dew
Point
Rel
Hum
%
Delta-T
°C
Wind Press
QNH
hPa
Press
MSL
hPa
Rain
since 9 am
mm
Dir
 
Spd
km/h
Gust
km/h
Spd
kts
Gust
kts
02/11:30pm 11.4 8.6 10.0 91 0.7 N 15 17 8 9 1023.2 1023.5 0.8
02/11:00pm 11.7 9.0 10.3 91 0.7 N 15 17 8 9 1023.2 1023.5 0.8
02/10:30pm 11.6 9.3 10.3 92 0.7 N 13 17 7 9 1023.4 1023.7 0.8
02/10:00pm 11.3 9.6 9.9 91 0.7 N 9 11 5 6 1023.4 1023.7 0.8
02/09:30pm 11.8 10.5 10.0 89 0.9 NNW 7 9 4 5 1023.4 1023.7 0.8
02/09:00pm 12.3 11.1 10.4 88 1.0 NNE 7 9 4 5 1023.2 1023.5 0.8
02/08:30pm 12.9 11.5 10.8 87 1.1 N 9 13 5 7 1023.3 1023.6 0.8
02/08:00pm 12.8 11.3 10.7 87 1.1 N 9 11 5 6 1023.2 1023.5 0.8
02/07:30pm 13.0 12.0 10.9 87 1.1 NNE 7 9 4 5 1023.1 1023.4 0.8
02/07:00pm 13.2 11.7 10.4 83 1.5 N 9 13 5 7 1023.0 1023.3 0.4
02/06:30pm 13.7 12.0 9.9 78 2.0 NNE 9 15 5 8 1022.6 1022.8 0.2
02/06:00pm 14.0 12.2 9.4 74 2.4 NNE 9 11 5 6 1022.4 1022.6 0.2
02/05:30pm 14.1 12.3 9.5 74 2.4 NNE 9 13 5 7 1022.5 1022.7 0.2
02/05:00pm 14.7 13.0 9.7 72 2.6 N 9 15 5 8 1022.6 1022.8 0.2
02/04:30pm 14.9 13.3 10.1 73 2.5 N 9 13 5 7 1022.6 1022.8 0.2
02/04:00pm 15.3 13.7 10.3 72 2.7 NNE 9 13 5 7 1022.6 1022.8 0.2
02/03:30pm 15.5 13.7 10.7 73 2.6 N 11 15 6 8 1022.7 1022.9 0.2
02/03:00pm 15.2 12.6 10.8 75 2.4 N 15 19 8 10 1022.8 1023.0 0.2
02/02:30pm 15.6 12.9 10.4 71 2.8 N 15 19 8 10 1022.8 1023.0 0.2
02/02:00pm 16.4 12.9 10.3 67 3.3 N 19 22 10 12 1022.4 1022.6 0.2
02/01:30pm 16.1 12.9 10.0 67 3.2 N 17 24 9 13 1022.6 1022.8 0.2
02/01:00pm 15.6 13.5 9.9 69 3.0 N 11 15 6 8 1022.8 1023.0 0.2
02/12:30pm 14.9 12.8 9.9 72 2.6 N 11 15 6 8 1023.2 1023.5 0.2
02/12:00pm 14.6 13.3 9.8 73 2.5 NNE 7 11 4 6 1023.7 1024.0 0.2
02/11:30am 14.5 12.8 9.7 73 2.5 NNE 9 13 5 7 1024.4 1024.6 0.2
02/11:00am 14.1 12.4 9.7 75 2.3 N 9 13 5 7 1024.8 1025.0 0.2
02/10:30am 14.1 12.2 9.1 72 2.6 N 9 13 5 7 1025.2 1025.4 0.2
02/10:00am 13.5 11.6 9.2 75 2.2 NNE 9 13 5 7 1025.0 1025.2 0.2
02/09:30am 12.7 10.8 9.0 78 1.9 NNE 9 11 5 6 1025.2 1025.4 0.2
02/09:00am 12.2 10.8 9.0 81 1.6 N 6 9 3 5 1025.1 1025.3 0.2
02/08:30am 12.2 10.8 8.7 79 1.8 NE 6 7 3 4 1025.0 1025.2 0.2
02/08:00am 12.3 11.1 8.2 76 2.0 WSW 4 6 2 3 1025.6 1025.8 0.2
02/07:30am 12.4 10.6 7.9 74 2.2 WNW 7 11 4 6 1025.3 1025.5 0.2
02/07:00am 13.0 9.9 7.2 68 2.8 NE 13 20 7 11 1025.0 1025.2 0.2
02/06:30am 12.8 10.5 7.5 70 2.6 NE 9 13 5 7 1024.8 1025.0 0.2
02/06:00am 12.7 10.1 7.8 72 2.4 NE 11 17 6 9 1024.6 1024.8 0.2
02/05:30am 12.3 9.8 8.0 75 2.1 NE 11 15 6 8 1024.8 1025.0 0.2
02/05:00am 12.8 10.9 7.7 71 2.5 N 7 11 4 6 1024.9 1025.1 0.0
02/04:30am 13.3 10.5 6.9 65 3.1 NE 11 17 6 9 1024.4 1024.6 0.0
02/04:00am 13.6 10.4 6.9 64 3.3 NE 13 17 7 9 1024.0 1024.3 0.0
02/03:30am 12.9 10.7 8.0 72 2.5 NNE 9 13 5 7 1024.7 1024.9 0.0
02/03:00am 12.4 10.5 8.9 79 1.8 N 9 11 5 6 1025.7 1025.9 0.0
02/02:30am 12.9 10.7 8.0 72 2.5 NNW 9 13 5 7 1025.7 1025.9 0.0
02/02:00am 13.1 11.5 7.8 70 2.6 N 6 7 3 4 1025.3 1025.5 0.0
02/01:30am 13.9 12.7 6.5 61 3.6 ESE 2 6 1 3 1024.9 1025.1 0.0
02/01:00am 13.6 11.7 7.4 66 3.1 NNE 7 9 4 5 1025.0 1025.2 0.0
02/12:30am 13.4 12.2 8.0 70 2.7 NE 4 7 2 4 1025.1 1025.3 0.0
02/12:00am 13.4 12.9 8.0 70 2.7 CALM 0 0 0 0 1025.3 1025.5 0.0
 
Date/Time
WST
Temp
°C
App
Temp
°C
Dew
Point
Rel
Hum
%
Delta-T
°C
Wind Press
QNH
hPa
Press
MSL
hPa
Rain
since 9 am
mm
Dir
 
Spd
km/h
Gust
km/h
Spd
kts
Gust
kts
01/11:30pm 14.5 13.3 6.6 59 3.9 S 2 7 1 4 1025.4 1025.6 0.0
01/11:00pm 14.8 13.4 5.6 54 4.4 NNE 2 7 1 4 1025.4 1025.6 0.0
01/10:30pm 15.2 12.8 5.1 51 4.8 NE 7 11 4 6 1025.2 1025.4 0.0
01/10:00pm 14.8 12.8 6.1 56 4.2 N 6 9 3 5 1025.4 1025.6 0.0
01/09:30pm 15.2 12.5 5.4 52 4.7 NE 9 13 5 7 1024.9 1025.1 0.0
01/09:00pm 14.7 13.8 6.0 56 4.2 CALM 0 0 0 0 1025.5 1025.7 0.0
01/08:30pm 15.0 14.1 6.0 55 4.4 CALM 0 4 0 2 1025.7 1025.9 0.0
01/08:00pm 15.2 13.0 6.0 54 4.5 NNE 7 11 4 6 1025.5 1025.7 0.0
01/07:30pm 14.7 12.8 6.8 59 3.9 N 6 9 3 5 1025.6 1025.8 0.0
01/07:00pm 15.1 13.4 7.4 60 3.8 NNE 6 6 3 3 1025.5 1025.7 0.0
01/06:30pm 16.1 14.0 6.8 54 4.6 NE 7 9 4 5 1025.4 1025.6 0.0
01/06:00pm 16.4 14.2 6.0 50 5.1 NE 7 11 4 6 1025.2 1025.4 0.0
01/05:30pm 16.3 15.8 8.0 58 4.3 CALM 0 0 0 0 1025.2 1025.4 0.0
01/05:00pm 17.2 16.8 8.1 55 4.7 CALM 0 0 0 0 1024.8 1025.0 0.0
01/04:30pm 17.7 16.8 7.7 52 5.1 NNE 2 6 1 3 1024.5 1024.7 0.0
01/04:00pm 18.3 16.4 7.7 50 5.4 N 7 9 4 5 1024.6 1024.8 0.0
01/03:30pm 18.9 17.0 6.7 45 6.2 NNE 6 9 3 5 1024.1 1024.4 0.0
01/03:00pm 19.4 16.2 5.1 39 7.0 N 11 15 6 8 1024.0 1024.3 0.0
01/02:30pm 19.8 16.5 4.7 37 7.4 N 11 15 6 8 1024.0 1024.3 0.0
01/02:00pm 19.6 16.5 5.6 40 7.0 N 11 17 6 9 1024.0 1024.3 0.0
01/01:30pm 19.8 16.3 5.5 39 7.1 N 13 17 7 9 1024.0 1024.3 0.0
01/01:00pm 20.3 16.7 4.8 36 7.6 N 13 19 7 10 1024.6 1024.8 0.0
01/12:30pm 19.8 16.5 4.3 36 7.6 N 11 15 6 8 1025.0 1025.2 0.0
01/12:00pm 19.4 16.1 4.3 37 7.3 NNW 11 15 6 8 1024.8 1025.0 0.0
01/11:30am 18.1 14.9 5.0 42 6.4 N 11 17 6 9 1025.2 1025.4 0.0
01/11:00am 17.6 14.3 4.5 42 6.3 NNW 11 17 6 9 1025.5 1025.7 0.0
01/10:30am 16.8 13.5 4.8 45 5.8 NNW 11 13 6 7 1026.0 1026.3 0.0
01/10:00am 15.2 10.9 5.1 51 4.8 N 17 20 9 11 1026.1 1026.4 0.0
01/09:30am 14.6 10.1 4.3 50 4.8 N 17 22 9 12 1026.1 1026.4 0.0
01/09:00am 13.5 10.3 4.9 56 4.0 NNE 11 15 6 8 1025.8 1026.0 0.0
01/08:30am 12.9 9.6 4.8 58 3.8 NNE 11 15 6 8 1025.5 1025.7 0.0
01/08:00am 10.7 8.6 5.9 72 2.2 NNE 6 7 3 4 1025.6 1025.8 0.0
01/07:30am 10.3 8.0 5.5 72 2.2 NNE 7 9 4 5 1025.3 1025.4 0.0
01/07:00am 9.9 8.8 5.3 73 2.1 CALM 0 0 0 0 1025.2 1025.3 0.0
01/06:30am 9.9 8.0 5.1 72 2.2 N 4 7 2 4 1024.9 1025.0 0.0
01/06:00am 11.0 8.7 4.7 65 2.9 N 6 50 3 27 1024.8 1024.9 0.0
01/05:30am 11.2 8.7 4.7 64 3.0 NNE 7 9 4 5 1024.6 1024.7 0.0
01/05:00am 10.4 8.2 5.4 71 2.3 N 6 7 3 4 1024.6 1024.7 0.0
01/04:30am 10.9 8.5 5.2 68 2.6 N 7 9 4 5 1024.5 1024.6 0.0
01/04:00am 10.4 9.4 5.6 72 2.2 CALM 0 0 0 0 1023.9 1024.0 0.0
01/03:30am 10.2 9.2 5.4 72 2.2 CALM 0 0 0 0 1024.4 1024.4 0.0
01/03:00am 10.4 9.4 5.6 72 2.2 CALM 0 0 0 0 1024.3 1024.3 0.0
01/02:30am 10.8 9.3 4.9 67 2.7 W 2 6 1 3 1024.5 1024.6 0.0
01/02:00am 11.1 9.3 5.2 67 2.7 N 4 6 2 3 1024.4 1024.4 0.0
01/01:30am 11.2 8.9 5.7 69 2.6 NNE 7 9 4 5 1024.0 1024.1 0.0
01/01:00am 11.3 9.2 5.6 68 2.7 N 6 7 3 4 1024.0 1024.1 0.0
01/12:30am 11.5 9.1 5.2 65 2.9 N 7 11 4 6 1023.9 1024.0 0.0
01/12:00am 11.8 9.0 5.0 63 3.1 N 9 11 5 6 1024.7 1024.8 0.0

Other Formats:

Comma delimited format used in spreadsheet applications
http://www.bom.gov.au/fwo/IDW60801/IDW60801.95637.axf

JavaScript Object Notation format (JSON) in row-major order
http://www.bom.gov.au/fwo/IDW60801/IDW60801.95637.json